KAAA

Logan County Airport

Lincoln, Illinois, USA
METAR KAAA 140015Z AUTO 00000KT 2SM -RA OVC002 05/05 A3002 RMK AO2 P0001 T00450045
Observed Flight Rules
Dec-14 @ 00:15 UTC (30 minutes ago) Instrument Flight Rules
Visibility Clouds Conditions
2 miles
  • Overcast at 200' AGL
  • Light Rain
Temperatures Readings Precipitation
Current 5°C / 41°F
Dewpoint 5°C / 41°F
Humidity 100%
Altimeter 30.02" Hg
Pressure 1017 hPa
Elevation 182
Current Rain 0.01
METAR KAAA 140015Z AUTO 00000KT 2SM -RA OVC002 05/05 A3002 RMK AO2 P0001 T00450045
Observed Flight Rules
Dec-14 @ 00:15 UTC
(30 minutes ago)
LIFR
Clouds
  • Overcast at 200' AGL
Conditions
  • Light Rain
Temperature Dewpoint
5°C / 41°F 5°C / 41°F
Humidity Altimeter Pressure
100% 30.02" Hg 1017 hPa
Current Rain
0.01